This is the latest recevied weather packets stored in our database for station/object KO6HRZ. If no packets are shown the sender has not sent any weather packets the latest 10 day(s).
| Time | Temp. | Humidity | Pressure | Rain* | Wind** | Luminosity | Snow |
|---|---|---|---|---|---|---|---|
| 1777244850 | 17.78° C | 58% | 1013.1 hPa | 0 mm | - | 199 W/m² | - |
| 1777244248 | 17.78° C | 61% | 1013.1 hPa | 0 mm | - | 221 W/m² | - |
| 1777243643 | 17.78° C | 63% | 1013.1 hPa | 0 mm | - | 208 W/m² | - |
| 1777243041 | 17.78° C | 62% | 1013.2 hPa | 0 mm | - | 126 W/m² | - |
| 1777242440 | 18.89° C | 58% | 1013.4 hPa | 0 mm | - | 775 W/m² | - |
| 1777241840 | 17.78° C | 65% | 1013.5 hPa | 0 mm | - | 333 W/m² | - |
| 1777241236 | 17.22° C | 65% | 1013.5 hPa | 0 mm | - | 191 W/m² | - |
| 1777240630 | 17.78° C | 65% | 1013.4 hPa | 0 mm | - | 245 W/m² | - |
| 1777240030 | 17.78° C | 65% | 1013.4 hPa | 0 mm | - | 146 W/m² | - |
| 1777239431 | 18.89° C | 62% | 1013.4 hPa | 0 mm | - | 219 W/m² | - |
| 1777238831 | 18.89° C | 64% | 1013.6 hPa | 0 mm | - | 1123 W/m² | - |
| 1777238230 | 18.89° C | 64% | 1013.4 hPa | 0 mm | - | 460 W/m² | - |
| 1777237629 | 18.33° C | 63% | 1013.4 hPa | 0 mm | - | 530 W/m² | - |
| 1777237024 | 17.78° C | 66% | 1013.6 hPa | 0 mm | - | 1000 W/m² | - |
| 1777236420 | 18.33° C | 64% | 1013.5 hPa | 0 mm | - | 380 W/m² | - |
| 1777235819 | 17.78° C | 65% | 1013.3 hPa | 0 mm | - | 425 W/m² | - |
| 1777235218 | 18.33° C | 63% | 1013.6 hPa | 0 mm | - | 303 W/m² | - |
| 1777234616 | 17.78° C | 65% | 1013.6 hPa | 0 mm | - | 489 W/m² | - |
| 1777234013 | 18.33° C | 63% | 1013.5 hPa | 0 mm | - | 859 W/m² | - |
| 1777233410 | 17.78° C | 65% | 1013.7 hPa | 0 mm | - | 793 W/m² | - |
| 1777232807 | 17.22° C | 64% | 1013.6 hPa | 0 mm | - | 590 W/m² | - |
| 1777232204 | 17.78° C | 66% | 1013.6 hPa | 0 mm | - | 425 W/m² | - |
| 1777231603 | 16.67° C | 72% | 1013.7 hPa | 0 mm | - | 532 W/m² | - |
| 1777231000 | 16.67° C | 74% | 1013.6 hPa | 0 mm | - | 290 W/m² | - |
| 1777230398 | 16.11° C | 73% | 1013.6 hPa | 0 mm | - | 340 W/m² | - |
* Rain latest hour (hover to see other rain measurements)
** Current wind speed in m/s (hover to see current wind gust speed)